createdAt,value
2022-07-31T00:00:11.159Z,1.75
2022-07-31T00:02:37.419Z,2.22
2022-07-31T00:05:04.352Z,2.20
2022-07-31T00:07:30.597Z,2.30
2022-07-31T00:09:56.865Z,2.17
2022-07-31T00:12:23.122Z,2.50
2022-07-31T00:14:49.743Z,2.20
2022-07-31T00:17:16.012Z,2.50
2022-07-31T00:19:42.300Z,1.60
2022-07-31T00:22:09.255Z,2.10
2022-07-31T00:24:35.517Z,2.15
2022-07-31T00:27:02.033Z,2.28
2022-07-31T00:31:54.718Z,2.10
2022-07-31T00:34:21.027Z,2.00
2022-07-31T00:36:47.303Z,2.30
2022-07-31T00:39:13.570Z,2.28
2022-07-31T00:41:44.079Z,2.20
2022-07-31T00:44:12.155Z,2.40
2022-07-31T00:46:40.189Z,2.00
2022-07-31T00:49:10.297Z,2.50
2022-07-31T00:51:37.161Z,2.33
2022-07-31T00:54:03.675Z,2.05
2022-07-31T00:56:29.974Z,2.80
2022-07-31T00:58:56.329Z,2.30
2022-07-31T01:01:23.050Z,2.40
2022-07-31T01:03:50.029Z,2.10
2022-07-31T01:08:42.608Z,2.58
2022-07-31T01:11:12.636Z,2.35
2022-07-31T01:13:54.041Z,2.28
2022-07-31T01:16:21.869Z,2.47
2022-07-31T01:18:48.525Z,2.33
2022-07-31T01:21:20.284Z,2.17
2022-07-31T01:24:06.062Z,2.20
2022-07-31T01:26:41.450Z,2.25
2022-07-31T01:29:10.145Z,2.17
2022-07-31T01:31:41.717Z,2.15
2022-07-31T01:34:26.611Z,2.35
2022-07-31T01:36:56.932Z,2.03
2022-07-31T01:39:23.688Z,2.55
2022-07-31T01:41:51.092Z,2.28
2022-07-31T01:44:18.591Z,2.47
2022-07-31T01:46:46.662Z,1.77
2022-07-31T01:49:13.535Z,2.97
2022-07-31T01:54:06.356Z,2.00
2022-07-31T01:56:32.918Z,3.33
2022-07-31T01:58:59.313Z,3.05
2022-07-31T02:01:27.527Z,2.13
2022-07-31T02:03:56.171Z,2.55
2022-07-31T02:06:23.298Z,2.80
2022-07-31T02:08:50.421Z,2.10
2022-07-31T02:11:18.152Z,2.47
2022-07-31T02:13:45.554Z,2.50
2022-07-31T02:16:12.709Z,2.85
2022-07-31T02:18:39.894Z,2.30
2022-07-31T02:21:06.341Z,2.63
2022-07-31T02:23:33.337Z,2.60
2022-07-31T02:26:00.414Z,2.75
2022-07-31T02:28:27.496Z,2.72
2022-07-31T02:30:54.233Z,2.17
2022-07-31T02:33:21.538Z,2.25
2022-07-31T02:35:48.536Z,2.40
2022-07-31T02:40:50.908Z,2.70
2022-07-31T02:43:17.282Z,2.33
2022-07-31T02:45:43.844Z,2.47
2022-07-31T02:48:10.382Z,2.42
2022-07-31T02:50:37.578Z,2.13
2022-07-31T02:53:03.853Z,2.15
2022-07-31T02:55:30.578Z,2.30
2022-07-31T03:00:33.220Z,2.42
2022-07-31T03:02:59.504Z,2.45
2022-07-31T03:05:25.804Z,2.42
2022-07-31T03:07:52.050Z,2.40
2022-07-31T03:10:18.471Z,3.22
2022-07-31T03:12:46.267Z,2.53
2022-07-31T03:15:13.615Z,2.28
2022-07-31T03:17:41.811Z,2.53
2022-07-31T03:20:08.778Z,2.50
2022-07-31T03:25:02.552Z,3.00
2022-07-31T03:27:28.817Z,2.35
2022-07-31T03:29:55.083Z,2.40
2022-07-31T03:32:21.631Z,2.83
2022-07-31T03:34:48.221Z,3.17
2022-07-31T03:37:14.575Z,3.00
2022-07-31T03:39:40.851Z,2.83
2022-07-31T03:42:18.853Z,2.55
2022-07-31T03:44:45.989Z,2.63
2022-07-31T03:47:12.394Z,2.78
2022-07-31T03:49:39.546Z,3.03
2022-07-31T03:52:11.407Z,2.47
2022-07-31T03:54:38.404Z,2.75
2022-07-31T03:57:05.280Z,2.45
2022-07-31T04:02:03.553Z,2.78
2022-07-31T04:04:33.744Z,2.40
2022-07-31T04:07:00.098Z,2.78
2022-07-31T04:09:26.408Z,2.65
2022-07-31T04:11:52.742Z,3.08
2022-07-31T04:14:19.028Z,3.15
2022-07-31T04:16:45.309Z,2.58
2022-07-31T04:19:11.617Z,2.67
2022-07-31T04:21:37.922Z,2.42
2022-07-31T04:24:04.339Z,2.70
2022-07-31T04:26:30.637Z,2.95
2022-07-31T04:28:56.925Z,3.30
2022-07-31T04:31:23.444Z,2.85
2022-07-31T04:33:54.546Z,3.05
2022-07-31T04:36:30.511Z,3.47
2022-07-31T04:38:57.417Z,2.60
2022-07-31T04:41:23.712Z,3.00
2022-07-31T04:43:49.994Z,3.65
2022-07-31T04:46:17.557Z,2.90
2022-07-31T04:48:44.287Z,3.05
2022-07-31T04:51:20.819Z,3.10
2022-07-31T04:53:47.279Z,3.47
2022-07-31T04:56:32.284Z,2.83
2022-07-31T04:58:59.120Z,2.80
2022-07-31T05:01:25.571Z,2.80
2022-07-31T05:03:52.026Z,2.97
2022-07-31T05:06:18.314Z,3.00
2022-07-31T05:08:44.602Z,3.13
2022-07-31T05:11:22.737Z,3.28
2022-07-31T05:13:50.626Z,2.95
2022-07-31T05:16:17.852Z,2.88
2022-07-31T05:18:45.308Z,3.28
2022-07-31T05:21:12.157Z,3.15
2022-07-31T05:23:39.032Z,2.53
2022-07-31T05:28:31.629Z,2.63
2022-07-31T05:30:57.911Z,2.72
2022-07-31T05:33:24.188Z,3.08
2022-07-31T05:35:50.459Z,2.70
2022-07-31T05:38:16.854Z,2.95
2022-07-31T05:40:43.209Z,2.45
2022-07-31T05:43:10.889Z,2.80
2022-07-31T05:45:37.154Z,3.13
2022-07-31T05:48:03.530Z,2.97
2022-07-31T05:50:29.779Z,2.67
2022-07-31T05:52:56.081Z,2.95
2022-07-31T05:55:22.420Z,3.55
2022-07-31T05:57:48.722Z,2.47
2022-07-31T06:00:16.294Z,2.70
2022-07-31T06:02:43.891Z,2.65
2022-07-31T06:05:10.203Z,2.42
2022-07-31T06:07:36.579Z,2.53
2022-07-31T06:10:03.791Z,2.83
2022-07-31T06:12:30.061Z,2.60
2022-07-31T06:14:56.336Z,2.83
2022-07-31T06:17:22.599Z,2.80
2022-07-31T06:19:48.840Z,2.83
2022-07-31T06:22:15.137Z,2.92
2022-07-31T06:24:42.583Z,3.42
2022-07-31T06:27:18.754Z,2.53
2022-07-31T06:29:57.753Z,2.88
2022-07-31T06:32:24.101Z,2.58
2022-07-31T06:34:50.373Z,2.97
2022-07-31T06:37:16.639Z,2.20
2022-07-31T06:39:54.757Z,2.60
2022-07-31T06:42:22.784Z,2.33
2022-07-31T06:44:49.154Z,2.55
2022-07-31T06:47:16.388Z,2.22
2022-07-31T06:49:42.870Z,2.35
2022-07-31T06:52:09.237Z,2.40
2022-07-31T06:54:35.626Z,2.70
2022-07-31T06:57:01.952Z,2.70
2022-07-31T06:59:39.171Z,2.40
2022-07-31T07:02:07.503Z,2.33
2022-07-31T07:05:04.784Z,2.65
2022-07-31T07:07:20.495Z,2.28
2022-07-31T07:09:46.752Z,2.80
2022-07-31T07:12:16.760Z,2.50
2022-07-31T07:14:43.436Z,2.25
2022-07-31T07:17:09.777Z,3.08
2022-07-31T07:19:39.046Z,2.63
2022-07-31T07:22:05.727Z,2.95
2022-07-31T07:24:32.837Z,2.17
2022-07-31T07:29:25.319Z,2.40
2022-07-31T07:31:51.633Z,2.45
2022-07-31T07:34:18.040Z,2.70
2022-07-31T07:36:44.302Z,2.30
2022-07-31T07:39:10.634Z,2.35
2022-07-31T07:41:38.513Z,2.42
2022-07-31T07:44:06.065Z,2.55
2022-07-31T07:46:32.367Z,2.25
2022-07-31T07:48:59.349Z,2.60
2022-07-31T07:51:25.659Z,2.65
2022-07-31T07:53:51.932Z,2.42
2022-07-31T07:56:18.397Z,2.67
2022-07-31T07:58:44.713Z,2.22
2022-07-31T08:01:11.368Z,2.65
2022-07-31T08:06:16.843Z,2.63
2022-07-31T08:08:43.145Z,2.50
2022-07-31T08:11:09.514Z,2.30
2022-07-31T08:13:35.785Z,2.75
2022-07-31T08:16:05.294Z,2.33
2022-07-31T08:18:31.824Z,2.65
2022-07-31T08:20:58.101Z,2.67
2022-07-31T08:23:24.375Z,2.45
2022-07-31T08:25:51.358Z,2.28
2022-07-31T08:28:19.518Z,2.67
2022-07-31T08:30:50.338Z,2.22
2022-07-31T08:33:16.877Z,2.15
2022-07-31T08:40:43.005Z,2.50
2022-07-31T08:43:31.124Z,2.38
2022-07-31T08:45:56.835Z,2.35
2022-07-31T08:48:25.096Z,1.70
2022-07-31T08:50:53.861Z,2.40
2022-07-31T08:53:22.524Z,2.28
2022-07-31T08:55:56.388Z,2.03
2022-07-31T08:58:23.496Z,2.50
2022-07-31T09:00:50.925Z,2.00
2022-07-31T09:03:17.622Z,2.28
2022-07-31T09:05:43.951Z,1.77
2022-07-31T09:08:14.715Z,2.00
2022-07-31T09:10:46.343Z,2.33
2022-07-31T09:13:16.919Z,2.05
2022-07-31T09:15:43.377Z,1.98
2022-07-31T09:18:15.698Z,2.33
2022-07-31T09:20:53.001Z,2.40
2022-07-31T09:23:19.246Z,1.90
2022-07-31T09:25:59.534Z,2.17
2022-07-31T09:28:39.331Z,2.22
2022-07-31T09:31:06.327Z,3.47
2022-07-31T09:33:33.134Z,1.88
2022-07-31T09:35:59.898Z,2.13
2022-07-31T09:38:31.283Z,2.00
2022-07-31T09:40:58.098Z,1.98
2022-07-31T09:43:24.724Z,1.73
2022-07-31T09:46:01.754Z,2.00
2022-07-31T09:48:28.737Z,1.88
2022-07-31T09:50:55.579Z,2.22
2022-07-31T09:53:21.935Z,2.30
2022-07-31T09:58:14.389Z,2.00
2022-07-31T10:03:07.411Z,1.90
2022-07-31T10:05:34.154Z,1.70
2022-07-31T10:08:01.680Z,1.80
2022-07-31T10:10:30.126Z,1.67
2022-07-31T10:12:58.971Z,1.60
2022-07-31T10:15:26.003Z,1.40
2022-07-31T10:17:52.726Z,1.65
2022-07-31T10:20:21.958Z,1.70
2022-07-31T10:22:49.451Z,1.20
2022-07-31T10:25:25.837Z,1.85
2022-07-31T10:27:54.020Z,1.40
2022-07-31T10:30:23.755Z,1.70
2022-07-31T10:32:53.836Z,1.60
2022-07-31T10:35:22.510Z,1.67
2022-07-31T10:37:51.797Z,1.60
2022-07-31T10:40:25.228Z,1.30
2022-07-31T10:43:03.194Z,1.60
2022-07-31T10:45:32.612Z,1.38
2022-07-31T10:48:00.172Z,1.60
2022-07-31T10:50:29.417Z,1.30
2022-07-31T10:53:00.483Z,1.58
2022-07-31T10:55:27.126Z,1.13
2022-07-31T10:57:56.063Z,1.50
2022-07-31T11:00:29.767Z,1.52
2022-07-31T11:02:56.870Z,1.35
2022-07-31T11:05:23.696Z,1.30
2022-07-31T11:08:03.936Z,1.52
2022-07-31T11:10:30.648Z,1.50
2022-07-31T11:12:59.930Z,1.35
2022-07-31T11:15:26.468Z,1.38
2022-07-31T11:18:22.236Z,1.40
2022-07-31T11:20:39.141Z,1.50
2022-07-31T11:23:06.796Z,1.33
2022-07-31T11:25:34.950Z,1.20
2022-07-31T11:28:14.688Z,1.40
2022-07-31T11:31:07.292Z,1.30
2022-07-31T11:33:47.114Z,1.30
2022-07-31T11:36:20.490Z,1.30
2022-07-31T11:38:47.817Z,1.30
2022-07-31T11:41:15.150Z,1.20
2022-07-31T11:43:48.753Z,1.35
2022-07-31T11:46:25.915Z,1.08
2022-07-31T11:48:52.420Z,1.52
2022-07-31T11:51:19.556Z,1.70
2022-07-31T11:53:46.105Z,1.15
2022-07-31T11:56:23.559Z,1.35
2022-07-31T11:58:51.890Z,1.65
2022-07-31T12:01:18.702Z,1.58
2022-07-31T12:03:46.357Z,1.20
2022-07-31T12:06:17.770Z,1.25
2022-07-31T12:08:46.326Z,1.35
2022-07-31T12:11:12.913Z,1.00
2022-07-31T12:13:39.476Z,1.10
2022-07-31T12:16:07.609Z,1.20
2022-07-31T12:18:45.800Z,1.33
2022-07-31T12:21:12.162Z,1.17
2022-07-31T12:23:42.546Z,1.30
2022-07-31T12:26:10.951Z,1.05
2022-07-31T12:28:37.513Z,2.40
2022-07-31T12:31:03.859Z,1.48
2022-07-31T12:33:39.706Z,1.30
2022-07-31T12:36:12.863Z,1.17
2022-07-31T12:38:45.406Z,1.30
2022-07-31T12:41:14.642Z,1.27
2022-07-31T12:43:50.192Z,1.20
2022-07-31T12:46:19.646Z,1.30
2022-07-31T12:48:46.356Z,1.30
2022-07-31T12:51:13.125Z,1.15
2022-07-31T12:53:39.395Z,1.10
2022-07-31T12:56:10.402Z,1.27
2022-07-31T12:58:36.669Z,1.00
2022-07-31T13:01:02.962Z,1.23
2022-07-31T13:03:45.588Z,1.30
2022-07-31T13:06:12.589Z,1.42
2022-07-31T13:08:38.850Z,1.30
2022-07-31T13:11:05.121Z,1.10
2022-07-31T13:13:31.398Z,1.23
2022-07-31T13:15:57.641Z,1.20
2022-07-31T13:18:23.980Z,1.40
2022-07-31T13:20:50.232Z,1.50
2022-07-31T13:23:19.010Z,1.30
2022-07-31T13:25:45.257Z,1.20
2022-07-31T13:28:11.532Z,1.10
2022-07-31T13:30:37.817Z,1.05
2022-07-31T13:33:04.165Z,1.00
2022-07-31T13:35:31.669Z,1.02
2022-07-31T13:37:58.141Z,1.10
2022-07-31T13:40:43.428Z,1.00
2022-07-31T13:43:10.138Z,0.95
2022-07-31T13:45:36.460Z,0.80
2022-07-31T13:48:06.884Z,0.90
2022-07-31T13:50:35.365Z,0.90
2022-07-31T13:53:01.626Z,1.00
2022-07-31T13:55:27.921Z,1.20
2022-07-31T13:57:57.068Z,1.73
2022-07-31T14:00:26.349Z,1.00
2022-07-31T14:02:52.758Z,6.82
2022-07-31T14:05:19.072Z,1.20
2022-07-31T14:07:51.711Z,0.93
2022-07-31T14:10:20.710Z,0.85
2022-07-31T14:12:47.702Z,0.80
2022-07-31T14:15:14.116Z,1.20
2022-07-31T14:17:40.467Z,1.50
2022-07-31T14:20:06.962Z,1.08
2022-07-31T14:22:33.251Z,1.13
2022-07-31T14:24:59.541Z,1.45
2022-07-31T14:27:25.868Z,1.00
2022-07-31T14:29:52.189Z,1.00
2022-07-31T14:32:19.243Z,1.00
2022-07-31T14:34:45.642Z,1.00
2022-07-31T14:37:11.903Z,1.10
2022-07-31T14:39:42.611Z,0.85
2022-07-31T14:42:09.346Z,1.10
2022-07-31T14:44:35.670Z,0.90
2022-07-31T14:47:02.070Z,0.70
2022-07-31T14:50:07.771Z,0.98
2022-07-31T14:52:15.039Z,1.08
2022-07-31T14:54:41.314Z,0.80
2022-07-31T14:57:07.561Z,1.08
2022-07-31T14:59:33.853Z,0.90
2022-07-31T15:02:00.356Z,0.70
2022-07-31T15:04:26.655Z,0.80
2022-07-31T15:07:07.629Z,1.10
2022-07-31T15:09:39.210Z,0.90
2022-07-31T15:12:05.670Z,0.80
2022-07-31T15:14:31.971Z,0.93
2022-07-31T15:16:58.323Z,0.90
2022-07-31T15:19:24.584Z,1.05
2022-07-31T15:22:10.989Z,0.85
2022-07-31T15:24:39.280Z,0.85
2022-07-31T15:27:08.712Z,0.98
2022-07-31T15:30:00.672Z,2.00
2022-07-31T15:32:21.228Z,3.90
2022-07-31T15:34:47.525Z,1.50
2022-07-31T15:37:20.328Z,1.85
2022-07-31T15:40:01.386Z,1.05
2022-07-31T15:42:30.183Z,1.30
2022-07-31T15:44:56.497Z,1.45
2022-07-31T15:47:22.769Z,5.10
2022-07-31T15:49:49.181Z,1.08
2022-07-31T15:52:18.877Z,1.17
2022-07-31T15:54:46.375Z,1.23
2022-07-31T15:57:12.665Z,0.73
2022-07-31T15:59:38.974Z,0.77
2022-07-31T16:02:06.400Z,0.90
2022-07-31T16:04:32.902Z,1.08
2022-07-31T16:07:00.245Z,0.88
2022-07-31T16:10:03.873Z,1.15
2022-07-31T16:14:59.715Z,1.40
2022-07-31T16:17:37.617Z,0.80
2022-07-31T16:20:05.595Z,0.85
2022-07-31T16:22:31.854Z,0.88
2022-07-31T16:24:58.131Z,1.05
2022-07-31T16:27:24.401Z,1.30
2022-07-31T16:29:57.866Z,1.40
2022-07-31T16:32:28.029Z,1.23
2022-07-31T16:34:59.827Z,1.08
2022-07-31T16:37:52.687Z,0.80
2022-07-31T16:40:28.583Z,1.10
2022-07-31T16:42:57.568Z,1.10
2022-07-31T16:45:23.861Z,1.30
2022-07-31T16:47:51.774Z,1.10
2022-07-31T16:50:18.554Z,1.00
2022-07-31T16:52:44.840Z,0.82
2022-07-31T16:55:11.146Z,0.77
2022-07-31T16:57:37.397Z,0.80
2022-07-31T17:00:04.764Z,1.10
2022-07-31T17:02:31.022Z,0.90
2022-07-31T17:04:57.329Z,0.80
2022-07-31T17:07:23.673Z,0.82
2022-07-31T17:09:49.968Z,1.30
2022-07-31T17:12:17.660Z,1.30
2022-07-31T17:14:43.926Z,1.30
2022-07-31T17:17:10.433Z,1.10
2022-07-31T17:19:45.165Z,1.30
2022-07-31T17:22:17.825Z,1.40
2022-07-31T17:24:50.077Z,0.90
2022-07-31T17:27:16.487Z,1.15
2022-07-31T17:29:42.881Z,1.58
2022-07-31T17:32:11.333Z,1.08
2022-07-31T17:34:37.951Z,1.00
2022-07-31T17:37:05.247Z,1.15
2022-07-31T17:39:31.871Z,1.15
2022-07-31T17:41:58.565Z,1.20
2022-07-31T17:44:24.868Z,1.83
2022-07-31T17:46:51.954Z,1.00
2022-07-31T17:49:19.466Z,1.50
2022-07-31T17:51:59.919Z,1.10
2022-07-31T17:54:27.521Z,1.27
2022-07-31T17:56:53.916Z,1.30
2022-07-31T17:59:20.290Z,1.20
2022-07-31T18:04:17.927Z,1.40
2022-07-31T18:06:45.161Z,1.00
2022-07-31T18:09:11.418Z,1.27
2022-07-31T18:11:37.761Z,1.27
2022-07-31T18:14:05.066Z,1.20
2022-07-31T18:16:31.494Z,1.15
2022-07-31T18:18:57.735Z,1.40
2022-07-31T18:21:23.997Z,1.48
2022-07-31T18:23:50.235Z,1.17
2022-07-31T18:26:16.527Z,1.42
2022-07-31T18:28:42.804Z,1.40
2022-07-31T18:31:31.620Z,1.67
2022-07-31T18:33:55.577Z,1.67
2022-07-31T18:38:48.209Z,1.58
2022-07-31T18:43:40.704Z,1.75
2022-07-31T18:46:06.983Z,1.75
2022-07-31T18:48:33.268Z,1.50
2022-07-31T18:51:04.557Z,1.73
2022-07-31T18:53:31.810Z,1.60
2022-07-31T18:58:24.559Z,1.70
2022-07-31T19:03:21.411Z,1.70
2022-07-31T19:05:49.980Z,1.73
2022-07-31T19:08:16.347Z,1.90
2022-07-31T19:10:42.635Z,1.60
2022-07-31T19:13:08.923Z,1.73
2022-07-31T19:15:45.593Z,1.73
2022-07-31T19:18:11.827Z,1.63
2022-07-31T19:21:00.103Z,1.55
2022-07-31T19:23:26.686Z,1.70
2022-07-31T19:26:03.843Z,1.67
2022-07-31T19:28:33.689Z,1.77
2022-07-31T19:31:00.251Z,1.77
2022-07-31T19:35:56.934Z,1.58
2022-07-31T19:38:27.739Z,1.52
2022-07-31T19:43:20.437Z,1.52
2022-07-31T19:48:33.073Z,1.80
2022-07-31T19:50:59.346Z,2.00
2022-07-31T19:53:25.585Z,2.10
2022-07-31T19:55:51.853Z,1.90
2022-07-31T19:58:18.328Z,2.15
2022-07-31T20:00:44.886Z,2.20
2022-07-31T20:03:11.336Z,2.17
2022-07-31T20:05:37.701Z,1.98
2022-07-31T20:08:04.071Z,1.70
2022-07-31T20:10:30.346Z,1.95
2022-07-31T20:12:56.616Z,2.13
2022-07-31T20:15:22.910Z,1.90
2022-07-31T20:17:49.255Z,1.70
2022-07-31T20:20:16.356Z,1.80
2022-07-31T20:22:42.796Z,2.35
2022-07-31T20:25:19.522Z,1.83
2022-07-31T20:27:47.038Z,1.90
2022-07-31T20:30:13.365Z,1.90
2022-07-31T20:32:48.564Z,2.13
2022-07-31T20:35:29.047Z,1.80
2022-07-31T20:37:59.992Z,1.88
2022-07-31T20:40:28.734Z,1.73
2022-07-31T20:42:55.222Z,1.80
2022-07-31T20:45:22.209Z,2.00
2022-07-31T20:47:50.670Z,1.83
2022-07-31T20:50:16.912Z,2.17
2022-07-31T20:52:48.134Z,1.83
2022-07-31T20:55:14.929Z,2.20
2022-07-31T20:57:41.334Z,1.98
2022-07-31T21:00:08.165Z,2.08
2022-07-31T21:02:34.564Z,2.22
2022-07-31T21:05:00.848Z,2.00
2022-07-31T21:07:27.193Z,2.50
2022-07-31T21:09:53.441Z,1.70
2022-07-31T21:12:19.693Z,1.95
2022-07-31T21:14:45.930Z,2.33
2022-07-31T21:17:12.199Z,2.10
2022-07-31T21:19:38.486Z,1.85
2022-07-31T21:22:05.161Z,1.80
2022-07-31T21:24:31.634Z,2.00
2022-07-31T21:26:59.264Z,1.88
2022-07-31T21:29:26.268Z,2.20
2022-07-31T21:31:52.774Z,1.85
2022-07-31T21:34:19.442Z,2.08
2022-07-31T21:39:18.617Z,1.95
2022-07-31T21:41:45.714Z,2.10
2022-07-31T21:44:12.760Z,2.00
2022-07-31T21:46:43.214Z,1.85
2022-07-31T21:49:14.610Z,2.05
2022-07-31T21:51:41.026Z,1.92
2022-07-31T21:54:07.328Z,2.20
2022-07-31T21:56:33.682Z,2.33
2022-07-31T21:58:59.923Z,1.77
2022-07-31T22:01:26.301Z,2.08
2022-07-31T22:03:52.626Z,1.98
2022-07-31T22:06:37.466Z,1.98
2022-07-31T22:09:03.817Z,2.17
2022-07-31T22:11:30.459Z,1.90
2022-07-31T22:16:22.910Z,2.28
2022-07-31T22:18:50.005Z,1.92
2022-07-31T22:21:16.405Z,2.03
2022-07-31T22:23:42.785Z,2.10
2022-07-31T22:26:09.609Z,2.20
2022-07-31T22:31:02.242Z,2.28
2022-07-31T22:33:28.534Z,2.40
2022-07-31T22:35:58.126Z,2.20
2022-07-31T22:38:26.447Z,2.20
2022-07-31T22:40:52.730Z,2.42
2022-07-31T22:44:11.251Z,2.20
2022-07-31T22:46:06.044Z,2.13
2022-07-31T22:48:32.825Z,2.28
2022-07-31T22:50:59.289Z,2.33
2022-07-31T22:53:25.702Z,2.50
2022-07-31T22:55:53.046Z,2.10
2022-07-31T22:58:19.932Z,2.00
2022-07-31T23:00:46.450Z,2.25
2022-07-31T23:03:12.789Z,2.20
2022-07-31T23:06:03.102Z,2.35
2022-07-31T23:08:25.319Z,1.95
2022-07-31T23:10:51.578Z,2.00
2022-07-31T23:13:17.846Z,2.10
2022-07-31T23:15:44.684Z,1.85
2022-07-31T23:18:11.770Z,2.17
2022-07-31T23:20:38.123Z,2.20
2022-07-31T23:23:04.419Z,2.00
2022-07-31T23:25:30.700Z,2.67
2022-07-31T23:27:56.980Z,2.22
2022-07-31T23:30:24.225Z,2.22
2022-07-31T23:32:50.517Z,2.58
2022-07-31T23:35:16.889Z,2.50
2022-07-31T23:37:44.537Z,2.35
2022-07-31T23:40:11.226Z,2.13
2022-07-31T23:45:07.522Z,2.20
2022-07-31T23:47:44.926Z,2.67
2022-07-31T23:50:13.078Z,2.67
2022-07-31T23:52:39.352Z,2.83
2022-07-31T23:55:05.826Z,2.28
2022-07-31T23:57:34.744Z,2.17
